Delphi, IN (46923)

9:13 PM EDT on May 22, 2015 (GMT -0400)
Brookston1 | | Change Station
CLOSE
Current Station
Personal Weather Station
Location: Brookston, IN
Elevation: 665 ft
Nearby Weather Stations

Elev 665 ft 40.63 °N, 86.81 °W | Updated 13 minutes ago

Partly Cloudy
Partly Cloudy
64.4 °F
Feels Like 64.4 °F
N
1.1
Wind Variable Wind from SW

Today
High -- | Low -- °F
--% Chance of Precip.
Yesterday
High -- | Low -- °F
Precip. -- in
6:24 AM 9:02 PM
Waxing Crescent, 25% visible
Pressure 30.26 in
Visibility 10.0 miles
Clouds Clear
Dew Point 42 °F
Humidity 44%
Rainfall 0.00 in
Snow Depth Not available.
UV 0 out of 12
Pollen 8.80 out of 12
Air Quality Not available.
Flu Activity Sporadic
METAR KGGP 230055Z AUTO 02007KT 10SM CLR 17/M03 A3026 RMK AO2

More Conditions Fewer Conditions

Pressure 30.26 in
Visibility 10.0 miles
Clouds Clear
Dew Point 42 °F
Humidity 44%
Rainfall 0.00 in
Snow Depth Not available.
UV 0 out of 12
Pollen 8.80 out of 12
Air Quality Not available.
Flu Activity Sporadic
METAR KGGP 230055Z AUTO 02007KT 10SM CLR 17/M03 A3026 RMK AO2

More Conditions Fewer Conditions

10-Day Weather Forecast

Almanac

Astronomy

May. 22, 2015 Rise Set
Actual Time
Civil Twilight
Nautical Twilight
Astronomical Twilight
Moon
Length of Visible Light
Length of Day
Tomorrow will be .
, % of the Moon is Illuminated

Today's Extremes

State Highs State Lows

Community

WunderPhotos

Upload Photos

1,823,355 photos uploaded!

WunderBlogs® & News

Nearby

Air Quality

  Air Quality AQ Index Pollutant
Not available.

Snow Depth

Station Depth Elevation

Earthquake Activity

City Distance Mag. Time & Date
Minimum magnitude displayed is 2.5.

Coastal Water Temperatures

Place Temperature

Stations

Nearby Weather Stations

Station Location Temp. Windchill Dew Point Humidity Wind Precip. Elev Updated Type